Time;durP1;ratioP1;P1;durP2;ratioP2;P2;SDS_P1;SDS_P2;PMS_P1;PMS_P2;Temp;Humidity;BMP_temperature;BMP_pressure;BME280_temperature;BME280_humidity;BME280_pressure;Samples;Min_cycle;Max_cycle;Signal;HPM_P1;HPM_P2
2023/03/09 00:09:20;;;;;;;10.07;3.75;;;1.60;99.90;;;;;;6205185;23;20028;-94
2023/03/09 00:11:48;;;;;;;10.18;4.32;;;1.60;99.90;;;;;;6167133;23;20023;-90
2023/03/09 00:14:15;;;;;;;8.93;3.75;;;1.60;99.90;;;;;;6166856;23;20012;-93
2023/03/09 00:16:43;;;;;;;10.35;3.90;;;1.60;99.90;;;;;;6142673;23;20048;-89
2023/03/09 00:19:08;;;;;;;9.07;3.97;;;1.60;99.90;;;;;;6167091;23;20017;-88
2023/03/09 00:21:58;;;;;;;8.70;3.83;;;1.50;99.90;;;;;;6167776;23;20021;-90
2023/03/09 00:24:27;;;;;;;11.18;4.00;;;1.50;99.90;;;;;;6167059;23;20020;-91
2023/03/09 00:26:56;;;;;;;9.43;4.05;;;1.50;99.90;;;;;;6167303;23;20016;-96
2023/03/09 00:29:22;;;;;;;11.75;4.57;;;1.50;99.90;;;;;;6166536;23;20480;-90
2023/03/09 00:38:53;;;;;;;9.48;4.53;;;1.50;99.90;;;;;;6220377;23;19943;-96
2023/03/09 00:41:20;;;;;;;9.68;3.83;;;1.50;99.90;;;;;;6169527;23;20121;-94
2023/03/09 00:43:47;;;;;;;9.65;3.72;;;1.50;99.90;;;;;;6167961;23;20099;-96
2023/03/09 00:46:13;;;;;;;11.40;4.80;;;1.50;99.90;;;;;;6167645;23;20019;-93
2023/03/09 00:48:39;;;;;;;13.35;5.10;;;1.50;99.90;;;;;;6167616;23;20024;-96
2023/03/09 00:51:06;;;;;;;9.55;4.10;;;1.50;99.90;;;;;;6167423;23;20012;-94
2023/03/09 00:53:32;;;;;;;12.38;4.53;;;1.50;99.90;;;;;;6167304;23;20092;-94
2023/03/09 00:56:04;;;;;;;9.55;3.78;;;1.50;99.90;;;;;;6143661;23;20016;-95
2023/03/09 00:58:29;;;;;;;12.05;4.10;;;1.50;99.90;;;;;;6167186;23;20028;-95
2023/03/09 01:00:56;;;;;;;10.35;3.75;;;1.50;99.90;;;;;;6167409;23;20017;-94
2023/03/09 01:03:21;;;;;;;10.87;4.40;;;1.50;99.90;;;;;;6167410;23;20024;-94
2023/03/09 01:05:47;;;;;;;11.60;4.32;;;1.50;99.90;;;;;;6142743;23;20260;-96
2023/03/09 01:08:13;;;;;;;11.33;4.63;;;1.50;99.90;;;;;;6166886;23;20044;-96
2023/03/09 01:10:40;;;;;;;11.23;4.47;;;1.50;99.90;;;;;;6167474;23;20027;-96
2023/03/09 01:13:07;;;;;;;11.90;4.68;;;1.40;99.90;;;;;;6167724;23;20013;-96
2023/03/09 01:15:34;;;;;;;12.43;4.10;;;1.40;99.90;;;;;;6166701;23;20028;-96
2023/03/09 01:17:59;;;;;;;;;;;1.40;99.90;;;;;;6167387;23;20012;-96
2023/03/09 01:20:25;;;;;;;10.13;4.30;;;1.30;99.90;;;;;;6142316;23;19970;-96
2023/03/09 01:23:15;;;;;;;11.13;4.23;;;1.30;99.90;;;;;;6168566;23;20020;-96
2023/03/09 01:25:41;;;;;;;12.77;5.22;;;1.30;99.90;;;;;;6166840;23;20095;-96
2023/03/09 01:28:06;;;;;;;10.90;4.68;;;1.30;99.90;;;;;;6167228;23;20452;-96
2023/03/09 01:30:32;;;;;;;12.38;5.05;;;1.30;99.90;;;;;;6167274;23;20016;-96
2023/03/09 01:37:03;;;;;;;13.30;5.43;;;1.20;99.90;;;;;;6218115;23;20047;-94
2023/03/09 01:39:29;;;;;;;10.90;4.65;;;1.20;99.90;;;;;;6166339;23;20450;-94
2023/03/09 01:41:56;;;;;;;10.93;4.90;;;1.20;99.90;;;;;;6166625;23;20020;-93
2023/03/09 01:44:21;;;;;;;;;;;1.10;99.90;;;;;;6167140;23;20012;-90
2023/03/09 01:46:49;;;;;;;15.25;6.10;;;1.10;99.90;;;;;;6166753;23;19983;-91
2023/03/09 01:49:21;;;;;;;13.80;6.00;;;1.00;99.90;;;;;;6166345;23;20027;-94
2023/03/09 01:51:59;;;;;;;19.25;7.25;;;1.00;99.90;;;;;;6166339;23;20047;-94
2023/03/09 01:55:02;;;;;;;14.07;5.93;;;1.00;99.90;;;;;;6191137;23;20095;-94
2023/03/09 01:57:44;;;;;;;16.33;7.05;;;1.00;99.90;;;;;;6166351;23;20052;-90
2023/03/09 02:00:18;;;;;;;16.00;6.22;;;1.00;99.90;;;;;;6166305;23;20457;-94
2023/03/09 02:02:50;;;;;;;13.15;5.13;;;0.90;99.90;;;;;;6165855;23;20083;-91
2023/03/09 02:05:36;;;;;;;13.80;5.30;;;0.90;99.90;;;;;;6166403;23;20051;-94
2023/03/09 02:08:02;;;;;;;13.52;5.57;;;0.90;99.90;;;;;;6165958;23;20016;-94
2023/03/09 02:10:40;;;;;;;11.98;5.35;;;0.80;99.90;;;;;;6166894;23;20082;-92
2023/03/09 02:13:13;;;;;;;12.80;4.70;;;0.80;99.90;;;;;;6167480;23;20020;-90
2023/03/09 02:15:39;;;;;;;12.05;4.72;;;0.80;99.90;;;;;;6166936;23;20024;-95
2023/03/09 02:18:05;;;;;;;12.17;4.33;;;0.80;99.90;;;;;;6167035;23;20016;-96
2023/03/09 02:20:57;;;;;;;14.27;5.07;;;0.80;99.90;;;;;;6166661;23;20492;-91
2023/03/09 02:23:41;;;;;;;13.13;4.97;;;0.70;99.90;;;;;;6166023;23;20016;-94
2023/03/09 02:26:06;;;;;;;12.80;4.72;;;0.70;99.90;;;;;;6165770;23;20024;-92
2023/03/09 02:28:33;;;;;;;12.95;4.35;;;0.70;99.90;;;;;;6165787;23;20028;-94
2023/03/09 02:30:59;;;;;;;14.02;5.40;;;0.70;99.90;;;;;;6166182;23;20091;-94
2023/03/09 02:33:28;;;;;;;12.55;4.88;;;0.70;99.90;;;;;;6165945;23;20453;-91
2023/03/09 02:35:55;;;;;;;13.55;4.57;;;0.70;99.90;;;;;;6165925;23;20012;-94
2023/03/09 02:38:21;;;;;;;12.00;4.68;;;0.70;99.90;;;;;;6166133;23;20438;-91
2023/03/09 02:40:48;;;;;;;13.17;4.87;;;0.80;99.90;;;;;;6165899;23;20092;-91
2023/03/09 02:43:17;;;;;;;14.63;4.60;;;0.80;99.90;;;;;;6165669;23;20456;-94
2023/03/09 02:45:43;;;;;;;15.52;5.90;;;0.70;99.90;;;;;;6165718;23;20019;-94
2023/03/09 02:48:08;;;;;;;15.60;5.88;;;0.80;99.90;;;;;;6165567;23;20103;-94
2023/03/09 02:50:34;;;;;;;16.25;5.35;;;0.70;99.90;;;;;;6165750;23;20024;-90
2023/03/09 02:53:00;;;;;;;12.57;5.70;;;0.70;99.90;;;;;;6166008;23;20505;-94
2023/03/09 02:55:26;;;;;;;14.60;5.40;;;0.70;99.90;;;;;;6166010;23;20019;-93
2023/03/09 02:57:52;;;;;;;17.30;5.13;;;0.70;99.90;;;;;;6165282;23;20071;-93
2023/03/09 03:00:21;;;;;;;13.82;4.82;;;0.70;99.90;;;;;;6165539;23;20044;-94
2023/03/09 03:02:47;;;;;;;14.57;5.28;;;0.70;99.90;;;;;;6190640;23;20067;-88
2023/03/09 03:05:12;;;;;;;16.23;6.07;;;0.70;99.90;;;;;;6165594;23;20024;-95
2023/03/09 03:07:38;;;;;;;15.95;5.90;;;0.70;99.90;;;;;;6141075;23;20017;-91
2023/03/09 03:10:05;;;;;;;16.45;6.55;;;0.70;99.90;;;;;;6165492;23;20458;-93
2023/03/09 03:12:30;;;;;;;14.98;6.70;;;0.70;99.90;;;;;;6166080;23;20016;-91
2023/03/09 03:14:56;;;;;;;15.23;6.13;;;0.70;99.90;;;;;;6141657;23;20080;-92
2023/03/09 03:17:22;;;;;;;14.68;6.03;;;0.70;99.90;;;;;;6165963;23;20016;-90
2023/03/09 03:19:48;;;;;;;18.10;7.13;;;0.70;99.90;;;;;;6165631;23;20442;-93
2023/03/09 03:22:13;;;;;;;16.87;6.70;;;0.80;99.90;;;;;;6141212;23;20027;-92
2023/03/09 03:24:39;;;;;;;15.63;6.82;;;0.70;99.90;;;;;;6165357;23;20028;-91
2023/03/09 03:27:06;;;;;;;16.63;6.45;;;0.70;99.90;;;;;;6165424;23;20085;-93
2023/03/09 03:29:31;;;;;;;19.20;6.97;;;0.80;99.90;;;;;;6165651;23;20040;-91
2023/03/09 03:31:58;;;;;;;17.10;7.05;;;0.80;99.90;;;;;;6165253;23;20259;-91
2023/03/09 03:34:24;;;;;;;15.82;6.07;;;0.70;99.90;;;;;;6165162;23;20430;-88
2023/03/09 03:36:50;;;;;;;14.30;6.17;;;0.80;99.90;;;;;;6165372;23;20013;-91
2023/03/09 03:39:16;;;;;;;18.88;6.65;;;0.80;99.90;;;;;;6165063;23;20016;-94
2023/03/09 03:41:41;;;;;;;15.57;6.53;;;0.80;99.90;;;;;;6165390;23;20078;-90
2023/03/09 03:44:07;;;;;;;15.05;6.05;;;0.80;99.90;;;;;;6190109;23;20067;-93
2023/03/09 03:46:33;;;;;;;17.38;6.80;;;0.90;99.90;;;;;;6190237;23;20017;-94
2023/03/09 03:48:59;;;;;;;16.38;6.18;;;0.90;99.90;;;;;;6164891;23;20023;-90
2023/03/09 03:51:24;;;;;;;14.27;5.57;;;0.90;99.90;;;;;;6165181;23;20017;-93
2023/03/09 03:53:50;;;;;;;17.55;7.22;;;0.90;99.90;;;;;;6165229;23;20098;-91
2023/03/09 03:56:16;;;;;;;14.68;6.30;;;0.90;99.90;;;;;;6164979;23;20024;-93
2023/03/09 03:58:42;;;;;;;16.52;5.82;;;0.90;99.90;;;;;;6165424;23;20017;-91
2023/03/09 04:01:07;;;;;;;15.13;5.90;;;0.90;99.90;;;;;;6165460;23;20013;-92
2023/03/09 04:03:33;;;;;;;16.08;6.40;;;1.00;99.90;;;;;;6189919;23;20468;-93
2023/03/09 04:06:01;;;;;;;19.43;7.07;;;1.00;99.90;;;;;;6165344;23;20013;-91
2023/03/09 04:08:28;;;;;;;14.50;5.85;;;0.90;99.90;;;;;;6159941;23;20017;-90
2023/03/09 04:10:54;;;;;;;16.55;6.53;;;1.00;99.90;;;;;;6185017;23;20017;-89
2023/03/09 04:13:20;;;;;;;15.00;6.47;;;1.00;99.90;;;;;;6135782;23;20454;-93
2023/03/09 04:15:46;;;;;;;17.98;6.80;;;1.00;99.90;;;;;;6160175;23;20017;-93
2023/03/09 04:18:13;;;;;;;13.00;5.40;;;1.00;99.90;;;;;;6159751;23;20323;-91
2023/03/09 04:20:40;;;;;;;16.13;6.68;;;0.90;99.90;;;;;;6160409;23;20017;-93
2023/03/09 04:23:06;;;;;;;15.98;6.95;;;1.00;99.90;;;;;;6160097;23;20035;-92
2023/03/09 04:25:32;;;;;;;15.27;7.23;;;0.90;99.90;;;;;;6160372;23;20013;-91
2023/03/09 04:27:58;;;;;;;16.60;5.93;;;0.90;99.90;;;;;;6160099;23;20101;-90
2023/03/09 04:30:24;;;;;;;16.20;7.00;;;0.90;99.90;;;;;;6135433;23;20017;-94
2023/03/09 04:32:50;;;;;;;16.33;6.33;;;0.90;99.90;;;;;;6160241;23;20529;-92
2023/03/09 04:35:17;;;;;;;17.60;6.43;;;0.90;99.90;;;;;;6160231;23;20013;-94
2023/03/09 04:37:45;;;;;;;13.88;6.10;;;0.90;99.90;;;;;;6160661;23;20080;-92
2023/03/09 04:40:12;;;;;;;15.82;6.35;;;0.90;99.90;;;;;;6159826;23;20016;-90
2023/03/09 04:42:38;;;;;;;16.13;6.25;;;0.90;99.90;;;;;;6160170;23;20447;-88
2023/03/09 04:45:04;;;;;;;14.88;5.43;;;0.90;99.90;;;;;;6160009;23;20075;-92
2023/03/09 04:47:30;;;;;;;12.60;5.53;;;0.90;99.90;;;;;;6186134;23;20017;-94
2023/03/09 04:49:56;;;;;;;14.02;5.82;;;0.90;99.90;;;;;;6160486;23;20021;-94
2023/03/09 04:52:22;;;;;;;14.38;6.13;;;0.90;99.90;;;;;;6161538;23;20013;-89
2023/03/09 04:54:48;;;;;;;15.65;5.68;;;0.80;99.90;;;;;;6162039;23;20027;-94
2023/03/09 04:57:14;;;;;;;14.43;5.82;;;0.90;99.90;;;;;;6161918;23;20071;-94
2023/03/09 04:59:40;;;;;;;16.77;5.30;;;0.90;99.90;;;;;;6161930;23;20017;-90
2023/03/09 05:02:06;;;;;;;16.30;6.47;;;1.00;99.90;;;;;;6162067;23;20352;-89
2023/03/09 05:04:32;;;;;;;13.65;5.40;;;0.90;99.90;;;;;;6161620;23;20025;-91
2023/03/09 05:06:58;;;;;;;13.95;5.78;;;0.90;99.90;;;;;;6161837;23;20035;-92
2023/03/09 05:09:24;;;;;;;15.48;6.32;;;0.90;99.90;;;;;;6161503;23;20084;-93
2023/03/09 05:11:51;;;;;;;14.47;6.13;;;0.90;99.90;;;;;;6186715;23;20017;-92
2023/03/09 05:14:17;;;;;;;;;;;0.90;99.90;;;;;;6162106;23;20268;-94
2023/03/09 05:16:43;;;;;;;12.13;5.30;;;0.90;99.90;;;;;;6161402;23;19917;-93
2023/03/09 05:19:10;;;;;;;13.48;6.03;;;0.90;99.90;;;;;;6161083;23;20017;-88
2023/03/09 05:21:36;;;;;;;12.98;5.38;;;0.90;99.90;;;;;;6161449;23;20029;-93
2023/03/09 05:24:01;;;;;;;14.25;5.72;;;0.90;99.90;;;;;;6161568;23;20472;-90
2023/03/09 05:26:28;;;;;;;12.65;5.45;;;0.90;99.90;;;;;;6186465;23;20466;-92
2023/03/09 05:28:54;;;;;;;13.93;6.20;;;0.90;99.90;;;;;;6161434;23;20017;-90
2023/03/09 05:31:20;;;;;;;13.70;5.72;;;0.90;99.90;;;;;;6186115;23;20431;-95
2023/03/09 05:33:46;;;;;;;14.27;5.93;;;0.90;99.90;;;;;;6161546;23;20013;-92
2023/03/09 05:36:31;;;;;;;15.40;5.90;;;0.90;99.90;;;;;;6186267;23;20741;-90
2023/03/09 05:38:56;;;;;;;13.35;5.68;;;0.90;99.90;;;;;;6186367;23;20021;-94
2023/03/09 05:41:22;;;;;;;11.65;5.53;;;0.90;99.90;;;;;;6161225;23;20083;-93
2023/03/09 05:43:48;;;;;;;14.48;6.63;;;0.90;99.90;;;;;;6185969;23;20021;-95
2023/03/09 05:46:16;;;;;;;15.55;6.35;;;0.80;99.90;;;;;;6160833;23;20075;-94
2023/03/09 05:48:42;;;;;;;14.50;6.10;;;0.90;99.90;;;;;;6161336;23;20025;-95
2023/03/09 05:51:10;;;;;;;12.73;5.72;;;0.90;99.90;;;;;;6161297;23;20338;-91
2023/03/09 05:53:36;;;;;;;14.23;5.95;;;0.80;99.90;;;;;;6162893;23;20017;-96
2023/03/09 05:56:03;;;;;;;13.90;6.45;;;0.90;99.90;;;;;;6161983;23;20092;-95
2023/03/09 05:58:29;;;;;;;13.65;5.75;;;0.90;99.90;;;;;;6161690;23;20017;-93
2023/03/09 06:00:56;;;;;;;14.02;6.18;;;0.90;99.90;;;;;;6161276;23;20024;-91
2023/03/09 06:03:22;;;;;;;;;;;0.90;99.90;;;;;;6161322;23;20013;-93
2023/03/09 06:05:48;;;;;;;14.20;5.97;;;0.90;99.90;;;;;;6160661;23;20393;-94
2023/03/09 06:08:14;;;;;;;13.32;5.85;;;0.90;99.90;;;;;;6163923;23;20087;-94
2023/03/09 06:10:40;;;;;;;13.27;5.72;;;0.80;99.90;;;;;;6140996;23;20024;-91
2023/03/09 06:13:07;;;;;;;13.75;5.82;;;0.80;99.90;;;;;;6165491;23;20076;-94
2023/03/09 06:15:33;;;;;;;12.63;6.18;;;0.80;99.90;;;;;;6165476;23;20016;-94
2023/03/09 06:17:59;;;;;;;16.48;6.05;;;0.90;99.90;;;;;;6165414;23;20021;-88
2023/03/09 06:20:25;;;;;;;13.93;5.40;;;0.80;99.90;;;;;;6166081;23;20083;-91
2023/03/09 06:22:50;;;;;;;12.77;5.55;;;0.80;99.90;;;;;;6167928;23;20052;-93
2023/03/09 06:25:16;;;;;;;14.83;6.47;;;0.90;99.90;;;;;;6165353;23;20080;-93
2023/03/09 06:27:42;;;;;;;13.85;6.70;;;0.90;99.90;;;;;;6165910;23;20047;-89
2023/03/09 06:30:08;;;;;;;15.32;6.25;;;0.90;99.90;;;;;;6141076;23;20386;-92
2023/03/09 06:32:34;;;;;;;15.48;6.10;;;0.90;99.90;;;;;;6165501;23;20012;-89
2023/03/09 06:35:00;;;;;;;13.73;5.57;;;0.80;99.90;;;;;;6165767;23;20111;-93
2023/03/09 06:37:27;;;;;;;15.77;5.97;;;0.80;99.90;;;;;;6215367;23;20023;-89
2023/03/09 06:39:52;;;;;;;14.02;5.95;;;0.80;99.90;;;;;;6141049;23;20441;-94
2023/03/09 06:42:18;;;;;;;15.23;6.47;;;0.80;99.90;;;;;;6190138;23;20079;-92
2023/03/09 06:44:45;;;;;;;13.00;5.95;;;0.80;99.90;;;;;;6141269;23;20017;-95
2023/03/09 06:47:11;;;;;;;15.52;6.05;;;0.80;99.90;;;;;;6165638;23;20126;-89
2023/03/09 06:49:37;;;;;;;14.20;6.38;;;0.90;99.90;;;;;;6165193;23;20017;-94
2023/03/09 06:52:04;;;;;;;15.00;6.23;;;0.90;99.90;;;;;;6165755;23;20048;-90
2023/03/09 06:54:29;;;;;;;13.35;6.25;;;0.90;99.90;;;;;;6141165;23;20259;-90
2023/03/09 06:56:55;;;;;;;12.57;5.55;;;0.90;99.90;;;;;;6165746;23;20038;-92
2023/03/09 06:59:21;;;;;;;13.20;5.32;;;0.90;99.90;;;;;;6166067;23;20020;-91
2023/03/09 07:01:58;;;;;;;12.43;5.20;;;0.90;99.90;;;;;;6165758;23;20083;-91
2023/03/09 07:04:39;;;;;;;;;;;;;;;;;;;;;
2023/03/09 07:07:08;;;;;;;11.95;5.78;;;1.00;99.90;;;;;;6190546;23;20071;-91
2023/03/09 07:09:34;;;;;;;14.48;6.38;;;1.00;99.90;;;;;;6141117;23;20016;-95
2023/03/09 07:12:00;;;;;;;14.13;5.90;;;0.90;99.90;;;;;;6166220;23;20034;-91
2023/03/09 07:14:27;;;;;;;13.68;6.47;;;1.00;99.90;;;;;;6166639;23;20439;-94
2023/03/09 07:16:54;;;;;;;15.07;6.32;;;1.00;99.90;;;;;;6168491;23;20017;-95
2023/03/09 07:19:25;;;;;;;16.27;6.18;;;1.00;99.90;;;;;;6183637;23;20068;-90
2023/03/09 07:21:53;;;;;;;12.90;5.63;;;1.00;99.90;;;;;;6181489;23;20021;-92
2023/03/09 07:24:19;;;;;;;14.77;6.10;;;1.00;99.90;;;;;;6173279;23;20048;-95
2023/03/09 07:26:47;;;;;;;14.47;5.97;;;1.10;99.90;;;;;;6179054;23;20057;-93
2023/03/09 07:29:12;;;;;;;15.07;7.03;;;1.10;99.90;;;;;;6179824;23;20268;-96
2023/03/09 07:31:39;;;;;;;13.57;6.38;;;1.10;99.90;;;;;;6169797;23;20048;-96
2023/03/09 07:34:07;;;;;;;14.13;6.10;;;1.30;99.90;;;;;;6148653;23;20020;-93
2023/03/09 07:36:34;;;;;;;15.38;6.63;;;1.40;99.90;;;;;;6194486;23;20012;-94
2023/03/09 07:39:00;;;;;;;15.70;6.57;;;1.40;99.90;;;;;;6168491;23;20039;-93
2023/03/09 07:41:39;;;;;;;12.25;6.20;;;1.50;99.90;;;;;;6170522;23;20417;-94
2023/03/09 07:44:07;;;;;;;13.95;6.28;;;1.50;99.90;;;;;;6198890;23;20017;-96
2023/03/09 07:49:16;;;;;;;12.45;5.90;;;1.50;99.90;;;;;;6219921;23;20031;-94
2023/03/09 07:52:06;;;;;;;16.27;6.60;;;1.50;99.90;;;;;;6165056;23;20025;-95
2023/03/09 07:54:43;;;;;;;14.15;5.75;;;1.50;99.90;;;;;;6160609;23;20513;-92
2023/03/09 07:57:50;;;;;;;14.95;6.35;;;1.60;99.90;;;;;;6160984;23;20018;-94
2023/03/09 08:00:20;;;;;;;13.07;5.82;;;1.60;99.90;;;;;;6118304;23;20140;-90
2023/03/09 08:03:36;;;;;;;;;;;;;;;;;;;;;
2023/03/09 08:10:18;;;;;;;12.15;5.47;;;1.80;99.90;;;;;;6040057;23;20523;-91
2023/03/09 08:12:51;;;;;;;11.93;5.43;;;1.90;99.90;;;;;;6084022;23;20006;-88
2023/03/09 08:15:19;;;;;;;11.93;4.85;;;1.90;99.90;;;;;;6073689;23;20097;-95
2023/03/09 08:17:44;;;;;;;12.57;5.35;;;2.00;99.90;;;;;;6121155;23;20096;-96
2023/03/09 08:20:11;;;;;;;11.82;5.10;;;2.00;99.90;;;;;;6161897;23;20059;-89
2023/03/09 08:22:37;;;;;;;11.80;5.30;;;2.00;99.90;;;;;;6135778;23;20017;-92
2023/03/09 08:25:04;;;;;;;12.10;5.10;;;2.10;99.90;;;;;;6160992;23;20025;-94
2023/03/09 08:27:30;;;;;;;11.20;5.15;;;2.10;99.90;;;;;;6139248;23;20020;-93
2023/03/09 08:29:56;;;;;;;12.70;5.27;;;2.10;99.90;;;;;;6164291;23;20021;-93
2023/03/09 08:32:23;;;;;;;9.57;4.80;;;2.10;99.90;;;;;;6163561;23;20728;-93
2023/03/09 08:34:53;;;;;;;10.60;4.78;;;2.10;99.90;;;;;;6162693;23;20017;-95
2023/03/09 08:37:19;;;;;;;12.02;5.35;;;2.10;99.90;;;;;;6186749;23;20330;-96
2023/03/09 08:39:44;;;;;;;11.52;5.15;;;2.20;99.90;;;;;;6162218;23;20052;-89
2023/03/09 08:42:10;;;;;;;9.95;4.57;;;2.20;99.90;;;;;;6162937;23;20028;-96
2023/03/09 08:44:36;;;;;;;10.63;4.80;;;2.30;99.90;;;;;;6162689;23;20091;-95
2023/03/09 08:47:02;;;;;;;10.00;4.43;;;2.30;99.90;;;;;;6189211;23;20021;-96
2023/03/09 08:49:28;;;;;;;11.70;5.03;;;2.40;99.90;;;;;;6170711;23;20024;-96
2023/03/09 08:51:55;;;;;;;11.73;4.70;;;2.40;99.90;;;;;;6167448;23;20453;-88
2023/03/09 08:54:20;;;;;;;;;;;2.40;99.90;;;;;;6168374;23;20480;-91
2023/03/09 08:56:46;;;;;;;10.95;4.38;;;2.50;99.90;;;;;;6167301;23;19916;-94
2023/03/09 08:59:12;;;;;;;12.30;5.28;;;2.50;99.90;;;;;;6143305;23;20027;-96
2023/03/09 09:01:38;;;;;;;11.20;5.07;;;2.60;99.90;;;;;;6176421;23;20020;-91
2023/03/09 09:04:04;;;;;;;11.07;4.63;;;2.60;99.90;;;;;;6171071;23;20478;-94
2023/03/09 09:06:30;;;;;;;9.93;4.67;;;2.70;99.90;;;;;;6192034;23;20450;-90
2023/03/09 09:08:55;;;;;;;10.82;4.88;;;2.70;99.90;;;;;;6166433;23;20277;-93
2023/03/09 09:11:21;;;;;;;8.47;4.00;;;2.80;99.90;;;;;;6167961;23;20013;-94
2023/03/09 09:13:47;;;;;;;7.50;3.38;;;2.80;99.90;;;;;;6170383;23;20020;-91
2023/03/09 14:51:53;;;;;;;9.85;5.07;;;3.70;99.90;;;;;;6222915;23;20024;-87
2023/03/09 14:56:54;;;;;;;11.30;4.85;;;3.60;99.90;;;;;;6188158;23;20036;-93
2023/03/09 14:59:20;;;;;;;9.88;4.47;;;3.60;99.90;;;;;;6114875;23;20108;-89
2023/03/09 15:01:51;;;;;;;10.47;4.67;;;3.60;99.90;;;;;;6113594;23;20049;-96
2023/03/09 15:04:20;;;;;;;10.15;4.97;;;3.60;99.90;;;;;;6165561;23;20021;-90
2023/03/09 15:06:48;;;;;;;9.32;4.22;;;3.50;99.90;;;;;;6136320;23;20013;-87
2023/03/09 15:09:14;;;;;;;11.48;4.68;;;3.50;99.90;;;;;;6136279;23;20048;-88
2023/03/09 15:11:40;;;;;;;9.95;4.82;;;3.50;99.90;;;;;;6137061;23;20390;-89
2023/03/09 15:14:48;;;;;;;11.70;5.43;;;3.50;99.90;;;;;;6139559;23;20021;-88
2023/03/09 15:17:20;;;;;;;9.60;4.60;;;3.50;99.90;;;;;;6142032;23;20016;-90
2023/03/09 15:19:48;;;;;;;9.60;4.53;;;3.50;99.90;;;;;;6157448;23;20049;-89
2023/03/09 15:22:20;;;;;;;10.93;5.18;;;3.50;99.90;;;;;;6145025;23;20028;-89
2023/03/09 15:29:56;;;;;;;10.07;4.57;;;3.50;99.90;;;;;;6198799;23;20446;-91
2023/03/09 15:32:25;;;;;;;11.77;5.22;;;3.50;99.90;;;;;;6171641;23;20103;-88
2023/03/09 15:34:55;;;;;;;11.93;5.15;;;3.40;99.90;;;;;;6196767;23;20520;-92
2023/03/09 15:37:21;;;;;;;10.32;4.78;;;3.40;99.90;;;;;;6148559;23;20013;-90
2023/03/09 15:39:51;;;;;;;10.55;5.28;;;3.40;99.90;;;;;;6170551;23;20124;-89
2023/03/09 15:42:19;;;;;;;12.63;6.13;;;3.30;99.90;;;;;;6172345;23;20013;-90
2023/03/09 15:44:48;;;;;;;13.38;6.35;;;3.30;99.90;;;;;;6223016;23;20020;-91
2023/03/09 15:47:15;;;;;;;11.35;5.78;;;3.20;99.90;;;;;;6173216;23;20059;-90
2023/03/09 15:49:42;;;;;;;12.40;6.38;;;3.20;99.90;;;;;;6173805;23;20028;-89
2023/03/09 16:10:17;;;;;;;14.85;7.45;;;2.90;99.90;;;;;;6166363;23;20025;-96
2023/03/09 16:12:43;;;;;;;15.57;7.40;;;2.80;99.90;;;;;;6139107;23;20034;-91
2023/03/09 16:15:09;;;;;;;14.23;7.30;;;2.80;99.90;;;;;;6140228;23;20017;-89
2023/03/09 16:17:35;;;;;;;15.52;6.75;;;2.70;99.90;;;;;;6116766;23;20017;-90
2023/03/09 16:20:00;;;;;;;15.10;6.97;;;2.70;99.90;;;;;;6143979;23;20017;-92
2023/03/09 16:22:27;;;;;;;14.18;6.88;;;2.70;99.90;;;;;;6142092;23;20067;-90
2023/03/09 16:24:57;;;;;;;13.43;6.55;;;2.70;99.90;;;;;;6146087;23;20048;-93
2023/03/09 16:27:32;;;;;;;15.98;7.15;;;2.70;99.90;;;;;;6146143;23;20036;-91
2023/03/09 16:30:01;;;;;;;13.45;7.22;;;2.60;99.90;;;;;;6143884;23;20021;-92
2023/03/09 16:32:29;;;;;;;13.77;6.90;;;2.60;99.90;;;;;;6140488;23;20067;-92
2023/03/09 16:35:42;;;;;;;15.10;6.82;;;2.70;99.90;;;;;;6142135;23;20017;-96
2023/03/09 16:38:14;;;;;;;15.57;7.20;;;2.60;99.90;;;;;;6136361;23;20021;-91
2023/03/09 16:41:23;;;;;;;17.35;7.80;;;2.60;99.90;;;;;;6163114;23;20017;-92
2023/03/09 18:23:21;;;;;;;15.40;7.10;;;1.80;99.90;;;;;;6219273;23;20024;-92
2023/03/09 18:26:16;;;;;;;13.52;6.35;;;1.80;99.90;;;;;;6167630;23;20024;-93
2023/03/09 18:28:52;;;;;;;;;;;;;;;;;;;;;
2023/03/09 19:10:59;;;;;;;16.27;7.03;;;1.40;99.90;;;;;;6127634;23;20032;-89
2023/03/09 19:13:25;;;;;;;16.05;6.85;;;1.30;99.90;;;;;;6137440;23;20048;-91
2023/03/09 19:15:53;;;;;;;14.20;6.68;;;1.30;99.90;;;;;;6137597;23;20028;-91
2023/03/09 19:46:44;;;;;;;16.05;8.23;;;1.20;99.90;;;;;;6185989;23;20028;-89
2023/03/09 19:49:11;;;;;;;18.42;8.05;;;1.30;99.90;;;;;;6135372;23;20017;-89
2023/03/09 19:51:37;;;;;;;19.23;9.50;;;1.30;99.90;;;;;;6135504;23;20071;-91
2023/03/09 19:54:05;;;;;;;18.37;7.77;;;1.30;99.90;;;;;;6135616;23;20402;-88
2023/03/09 19:56:41;;;;;;;17.38;7.40;;;1.30;99.90;;;;;;6135258;23;20742;-89
2023/03/09 19:59:11;;;;;;;19.05;9.05;;;1.30;99.90;;;;;;6135736;23;20052;-89
2023/03/09 20:06:53;;;;;;;18.80;8.77;;;1.30;99.90;;;;;;6185441;23;20025;-90
2023/03/09 20:09:26;;;;;;;26.75;10.50;;;1.30;99.90;;;;;;6158423;23;20029;-90
2023/03/09 20:11:52;;;;;;;21.05;8.63;;;1.30;99.90;;;;;;6159785;23;20021;-89
2023/03/09 20:14:18;;;;;;;21.05;9.65;;;1.30;99.90;;;;;;6111038;23;20330;-89
2023/03/09 20:16:45;;;;;;;37.15;14.18;;;1.30;99.90;;;;;;6135702;23;20021;-88
2023/03/09 20:19:13;;;;;;;23.52;10.15;;;1.30;99.90;;;;;;6135142;23;20020;-91
2023/03/09 20:21:39;;;;;;;21.30;9.35;;;1.30;99.90;;;;;;6136267;23;20024;-92
2023/03/09 20:24:06;;;;;;;21.30;9.93;;;1.30;99.90;;;;;;6137309;23;20017;-91
2023/03/09 20:26:38;;;;;;;21.70;9.35;;;1.30;99.90;;;;;;6137272;23;20017;-93
2023/03/09 20:29:04;;;;;;;24.75;10.73;;;1.30;99.90;;;;;;6137407;23;20021;-92
2023/03/09 20:31:34;;;;;;;27.45;11.27;;;1.30;99.90;;;;;;6137214;23;20072;-88
2023/03/09 20:34:02;;;;;;;25.00;10.27;;;1.30;99.90;;;;;;6137310;23;20091;-90
2023/03/09 20:36:32;;;;;;;19.98;9.43;;;1.30;99.90;;;;;;6137210;23;20021;-92
2023/03/09 20:38:59;;;;;;;21.85;10.15;;;1.30;99.90;;;;;;6161772;23;20418;-90
2023/03/09 20:41:26;;;;;;;23.02;10.70;;;1.30;99.90;;;;;;6137281;23;20347;-90
2023/03/09 20:43:52;;;;;;;24.38;9.95;;;1.30;99.90;;;;;;6137117;23;20033;-91
2023/03/09 20:46:20;;;;;;;20.67;9.48;;;1.40;99.90;;;;;;6112845;23;20319;-90
2023/03/09 20:48:47;;;;;;;21.80;9.75;;;1.40;99.90;;;;;;6137002;23;20013;-92
2023/03/09 20:51:13;;;;;;;26.67;12.25;;;1.40;99.90;;;;;;6137040;23;20411;-91
2023/03/09 20:53:39;;;;;;;29.08;11.45;;;1.40;99.90;;;;;;6137149;23;20009;-91
2023/03/09 20:56:09;;;;;;;25.83;11.18;;;1.40;99.90;;;;;;6112797;23;20052;-90
2023/03/09 20:58:36;;;;;;;26.00;10.23;;;1.40;99.90;;;;;;6112122;23;20024;-89
2023/03/09 21:01:02;;;;;;;23.45;9.65;;;1.50;99.90;;;;;;6135577;23;20043;-92
2023/03/09 21:03:28;;;;;;;16.85;8.18;;;1.50;99.90;;;;;;6135423;23;20130;-89
2023/03/09 21:05:54;;;;;;;20.55;9.05;;;1.50;99.90;;;;;;6135844;23;20009;-91
2023/03/09 21:08:21;;;;;;;22.77;9.35;;;1.50;99.90;;;;;;6160895;23;20014;-89
2023/03/09 21:10:47;;;;;;;19.48;8.85;;;1.50;99.90;;;;;;6161288;23;20107;-92
2023/03/09 21:13:13;;;;;;;23.73;10.27;;;1.50;99.90;;;;;;6136491;23;20055;-94
2023/03/09 21:15:40;;;;;;;23.60;10.00;;;1.50;99.90;;;;;;6136398;23;20072;-92
2023/03/09 21:18:07;;;;;;;20.23;9.68;;;1.50;99.90;;;;;;6136392;23;20017;-92
2023/03/09 21:20:33;;;;;;;17.48;7.68;;;1.60;99.90;;;;;;6136453;23;20017;-90
2023/03/09 21:22:58;;;;;;;16.75;8.25;;;1.60;99.90;;;;;;6136342;23;20021;-89
2023/03/09 21:25:24;;;;;;;20.00;8.32;;;1.50;99.90;;;;;;6136424;23;20139;-90
2023/03/09 21:27:50;;;;;;;22.27;8.77;;;1.50;99.90;;;;;;6112238;23;20092;-91
2023/03/09 21:30:16;;;;;;;18.75;8.05;;;1.50;99.90;;;;;;6110989;23;20351;-89
2023/03/09 21:32:43;;;;;;;21.48;9.18;;;1.50;99.90;;;;;;6136400;23;20092;-90
2023/03/09 21:35:22;;;;;;;22.27;8.70;;;1.50;99.90;;;;;;6136339;23;20067;-92
2023/03/09 21:37:49;;;;;;;21.33;8.60;;;1.50;99.90;;;;;;6136682;23;20028;-93
2023/03/09 21:40:15;;;;;;;20.67;9.43;;;1.50;99.90;;;;;;6136873;23;20017;-90
2023/03/09 21:42:41;;;;;;;23.63;9.13;;;1.50;99.90;;;;;;6112039;23;20071;-89
2023/03/09 21:45:08;;;;;;;24.05;10.40;;;1.50;99.90;;;;;;6136682;23;20027;-93
2023/03/09 21:47:34;;;;;;;22.80;10.07;;;1.50;99.90;;;;;;6088286;23;20017;-90
2023/03/09 21:50:00;;;;;;;19.05;8.15;;;1.50;99.90;;;;;;6136041;23;20017;-89
2023/03/09 21:52:26;;;;;;;19.27;8.85;;;1.40;99.90;;;;;;6135756;23;20298;-92
2023/03/09 21:54:51;;;;;;;19.50;8.40;;;1.40;99.90;;;;;;6135367;23;20091;-89
2023/03/09 21:57:17;;;;;;;18.63;7.57;;;1.40;99.90;;;;;;6133793;23;20013;-92
2023/03/09 21:59:43;;;;;;;17.05;8.07;;;1.40;99.90;;;;;;6134882;23;20099;-92
2023/03/09 22:02:19;;;;;;;15.63;7.57;;;1.40;99.90;;;;;;6110676;23;20013;-91
2023/03/09 22:04:45;;;;;;;20.35;8.95;;;1.40;99.90;;;;;;6136273;23;20020;-90
2023/03/09 22:07:12;;;;;;;19.85;8.20;;;1.40;99.90;;;;;;6136182;23;20012;-90
2023/03/09 22:09:38;;;;;;;18.30;7.65;;;1.40;99.90;;;;;;6135596;23;20025;-91
2023/03/09 22:12:04;;;;;;;18.92;7.88;;;1.40;99.90;;;;;;6111437;23;20140;-91
2023/03/09 22:14:30;;;;;;;18.60;7.82;;;1.40;99.90;;;;;;6111555;23;20334;-90
2023/03/09 22:16:55;;;;;;;21.08;9.23;;;1.40;99.90;;;;;;6135822;23;20068;-91
2023/03/09 22:19:25;;;;;;;17.92;7.60;;;1.40;99.90;;;;;;6136163;23;20079;-94